sensor_id;sensor_type;location;lat;lon;timestamp;temperature;humidity
39045;DHT22;52192;52.002;5.956;2023-03-08T00:00:44;2.90;81.20
39045;DHT22;52192;52.002;5.956;2023-03-08T00:03:13;2.90;81.20
39045;DHT22;52192;52.002;5.956;2023-03-08T00:05:40;2.90;81.10
39045;DHT22;52192;52.002;5.956;2023-03-08T00:08:06;2.90;81.10
39045;DHT22;52192;52.002;5.956;2023-03-08T00:10:32;2.90;81.00
39045;DHT22;52192;52.002;5.956;2023-03-08T00:12:58;2.80;80.90
39045;DHT22;52192;52.002;5.956;2023-03-08T00:15:23;2.80;80.90
39045;DHT22;52192;52.002;5.956;2023-03-08T00:17:49;2.80;80.70
39045;DHT22;52192;52.002;5.956;2023-03-08T00:20:15;2.80;80.60
39045;DHT22;52192;52.002;5.956;2023-03-08T00:22:41;2.70;80.50
39045;DHT22;52192;52.002;5.956;2023-03-08T00:25:08;2.70;80.50
39045;DHT22;52192;52.002;5.956;2023-03-08T00:27:35;2.60;80.40
39045;DHT22;52192;52.002;5.956;2023-03-08T00:30:03;2.60;80.40
39045;DHT22;52192;52.002;5.956;2023-03-08T00:32:30;2.60;80.40
39045;DHT22;52192;52.002;5.956;2023-03-08T00:34:56;2.70;80.40
39045;DHT22;52192;52.002;5.956;2023-03-08T00:37:22;2.70;80.30
39045;DHT22;52192;52.002;5.956;2023-03-08T00:39:52;2.70;80.20
39045;DHT22;52192;52.002;5.956;2023-03-08T00:42:19;2.70;80.30
39045;DHT22;52192;52.002;5.956;2023-03-08T00:44:45;2.70;80.40
39045;DHT22;52192;52.002;5.956;2023-03-08T00:47:12;2.70;80.50
39045;DHT22;52192;52.002;5.956;2023-03-08T00:49:38;2.70;80.40
39045;DHT22;52192;52.002;5.956;2023-03-08T00:52:04;2.70;80.30
39045;DHT22;52192;52.002;5.956;2023-03-08T00:54:30;2.60;80.30
39045;DHT22;52192;52.002;5.956;2023-03-08T00:56:56;2.60;80.30
39045;DHT22;52192;52.002;5.956;2023-03-08T00:59:22;2.60;80.40
39045;DHT22;52192;52.002;5.956;2023-03-08T01:01:47;2.60;80.40
39045;DHT22;52192;52.002;5.956;2023-03-08T01:04:13;2.60;80.40
39045;DHT22;52192;52.002;5.956;2023-03-08T01:06:39;2.60;80.50
39045;DHT22;52192;52.002;5.956;2023-03-08T01:09:05;2.60;80.50
39045;DHT22;52192;52.002;5.956;2023-03-08T01:11:31;2.60;80.50
39045;DHT22;52192;52.002;5.956;2023-03-08T01:14:00;2.60;80.50
39045;DHT22;52192;52.002;5.956;2023-03-08T01:16:28;2.70;80.50
39045;DHT22;52192;52.002;5.956;2023-03-08T01:18:55;2.70;80.50
39045;DHT22;52192;52.002;5.956;2023-03-08T01:21:22;2.70;80.50
39045;DHT22;52192;52.002;5.956;2023-03-08T01:23:48;2.70;80.40
39045;DHT22;52192;52.002;5.956;2023-03-08T01:26:16;2.70;80.40
39045;DHT22;52192;52.002;5.956;2023-03-08T01:28:43;2.70;80.40
39045;DHT22;52192;52.002;5.956;2023-03-08T01:31:17;2.70;80.50
39045;DHT22;52192;52.002;5.956;2023-03-08T01:33:43;2.70;80.40
39045;DHT22;52192;52.002;5.956;2023-03-08T01:36:12;2.70;80.40
39045;DHT22;52192;52.002;5.956;2023-03-08T01:38:39;2.70;80.40
39045;DHT22;52192;52.002;5.956;2023-03-08T01:41:06;2.70;80.30
39045;DHT22;52192;52.002;5.956;2023-03-08T01:43:34;2.70;80.30
39045;DHT22;52192;52.002;5.956;2023-03-08T01:46:22;2.70;80.20
39045;DHT22;52192;52.002;5.956;2023-03-08T01:49:07;2.60;80.20
39045;DHT22;52192;52.002;5.956;2023-03-08T01:51:57;2.60;80.30
39045;DHT22;52192;52.002;5.956;2023-03-08T01:54:42;2.60;80.40
39045;DHT22;52192;52.002;5.956;2023-03-08T01:59:41;2.60;80.40
39045;DHT22;52192;52.002;5.956;2023-03-08T02:02:08;2.70;80.30
39045;DHT22;52192;52.002;5.956;2023-03-08T02:04:34;2.70;80.30
39045;DHT22;52192;52.002;5.956;2023-03-08T02:07:00;2.70;80.30
39045;DHT22;52192;52.002;5.956;2023-03-08T02:09:26;2.70;80.40
39045;DHT22;52192;52.002;5.956;2023-03-08T02:11:54;2.80;80.60
39045;DHT22;52192;52.002;5.956;2023-03-08T02:14:24;2.80;80.70
39045;DHT22;52192;52.002;5.956;2023-03-08T02:16:50;2.80;80.70
39045;DHT22;52192;52.002;5.956;2023-03-08T02:19:20;2.90;80.70
39045;DHT22;52192;52.002;5.956;2023-03-08T02:21:47;3.00;80.80
39045;DHT22;52192;52.002;5.956;2023-03-08T02:24:21;3.00;80.90
39045;DHT22;52192;52.002;5.956;2023-03-08T02:26:50;3.00;81.10
39045;DHT22;52192;52.002;5.956;2023-03-08T02:29:17;3.00;81.20
39045;DHT22;52192;52.002;5.956;2023-03-08T02:31:43;3.00;81.40
39045;DHT22;52192;52.002;5.956;2023-03-08T02:34:09;3.00;81.40
39045;DHT22;52192;52.002;5.956;2023-03-08T02:36:34;3.00;81.70
39045;DHT22;52192;52.002;5.956;2023-03-08T02:39:00;2.90;81.70
39045;DHT22;52192;52.002;5.956;2023-03-08T02:41:26;3.00;81.90
39045;DHT22;52192;52.002;5.956;2023-03-08T02:43:51;3.00;81.80
39045;DHT22;52192;52.002;5.956;2023-03-08T02:46:17;3.00;81.80
39045;DHT22;52192;52.002;5.956;2023-03-08T02:48:43;3.00;81.90
39045;DHT22;52192;52.002;5.956;2023-03-08T02:51:10;3.00;81.90
39045;DHT22;52192;52.002;5.956;2023-03-08T02:53:36;3.00;82.10
39045;DHT22;52192;52.002;5.956;2023-03-08T02:56:02;3.00;82.10
39045;DHT22;52192;52.002;5.956;2023-03-08T02:58:28;3.10;82.30
39045;DHT22;52192;52.002;5.956;2023-03-08T03:00:53;3.10;82.30
39045;DHT22;52192;52.002;5.956;2023-03-08T03:03:19;3.20;82.20
39045;DHT22;52192;52.002;5.956;2023-03-08T03:05:45;3.10;82.10
39045;DHT22;52192;52.002;5.956;2023-03-08T03:08:11;3.10;82.20
39045;DHT22;52192;52.002;5.956;2023-03-08T03:10:37;3.20;82.30
39045;DHT22;52192;52.002;5.956;2023-03-08T03:13:05;3.20;83.00
39045;DHT22;52192;52.002;5.956;2023-03-08T03:15:30;3.20;82.30
39045;DHT22;52192;52.002;5.956;2023-03-08T03:17:57;3.30;82.50
39045;DHT22;52192;52.002;5.956;2023-03-08T03:20:22;3.30;82.40
39045;DHT22;52192;52.002;5.956;2023-03-08T03:22:48;3.30;82.50
39045;DHT22;52192;52.002;5.956;2023-03-08T03:25:14;3.30;82.40
39045;DHT22;52192;52.002;5.956;2023-03-08T03:27:40;3.40;82.50
39045;DHT22;52192;52.002;5.956;2023-03-08T03:30:07;3.40;82.50
39045;DHT22;52192;52.002;5.956;2023-03-08T03:32:33;3.40;82.50
39045;DHT22;52192;52.002;5.956;2023-03-08T03:34:59;3.40;82.50
39045;DHT22;52192;52.002;5.956;2023-03-08T03:37:24;3.40;82.50
39045;DHT22;52192;52.002;5.956;2023-03-08T03:39:50;3.40;82.50
39045;DHT22;52192;52.002;5.956;2023-03-08T03:42:16;3.40;82.40
39045;DHT22;52192;52.002;5.956;2023-03-08T03:44:42;3.40;82.40
39045;DHT22;52192;52.002;5.956;2023-03-08T03:47:08;3.40;82.50
39045;DHT22;52192;52.002;5.956;2023-03-08T03:49:34;3.40;82.50
39045;DHT22;52192;52.002;5.956;2023-03-08T03:51:59;3.50;82.50
39045;DHT22;52192;52.002;5.956;2023-03-08T03:54:25;3.40;82.40
39045;DHT22;52192;52.002;5.956;2023-03-08T03:56:51;3.40;82.50
39045;DHT22;52192;52.002;5.956;2023-03-08T03:59:17;3.40;82.50
39045;DHT22;52192;52.002;5.956;2023-03-08T04:01:43;3.50;82.50
39045;DHT22;52192;52.002;5.956;2023-03-08T04:04:09;3.50;82.40
39045;DHT22;52192;52.002;5.956;2023-03-08T04:06:35;3.40;82.50
39045;DHT22;52192;52.002;5.956;2023-03-08T04:09:07;3.40;82.50
39045;DHT22;52192;52.002;5.956;2023-03-08T04:11:35;3.50;82.60
39045;DHT22;52192;52.002;5.956;2023-03-08T04:14:01;3.40;82.60
39045;DHT22;52192;52.002;5.956;2023-03-08T04:16:29;3.40;82.60
39045;DHT22;52192;52.002;5.956;2023-03-08T04:18:57;3.40;82.70
39045;DHT22;52192;52.002;5.956;2023-03-08T04:21:23;3.40;82.70
39045;DHT22;52192;52.002;5.956;2023-03-08T04:23:50;3.40;82.70
39045;DHT22;52192;52.002;5.956;2023-03-08T04:26:15;3.40;82.60
39045;DHT22;52192;52.002;5.956;2023-03-08T04:28:42;3.40;82.50
39045;DHT22;52192;52.002;5.956;2023-03-08T04:31:22;3.30;82.50
39045;DHT22;52192;52.002;5.956;2023-03-08T04:33:48;3.30;82.70
39045;DHT22;52192;52.002;5.956;2023-03-08T04:36:14;3.20;82.80
39045;DHT22;52192;52.002;5.956;2023-03-08T04:38:41;3.30;82.90
39045;DHT22;52192;52.002;5.956;2023-03-08T04:41:07;3.30;82.90
39045;DHT22;52192;52.002;5.956;2023-03-08T04:43:43;3.30;82.90
39045;DHT22;52192;52.002;5.956;2023-03-08T04:46:10;3.30;82.80
39045;DHT22;52192;52.002;5.956;2023-03-08T04:48:36;3.40;82.80
39045;DHT22;52192;52.002;5.956;2023-03-08T04:51:03;3.30;82.70
39045;DHT22;52192;52.002;5.956;2023-03-08T04:53:30;3.30;82.80
39045;DHT22;52192;52.002;5.956;2023-03-08T04:55:56;3.30;82.90
39045;DHT22;52192;52.002;5.956;2023-03-08T04:58:23;3.30;83.00
39045;DHT22;52192;52.002;5.956;2023-03-08T05:00:49;3.30;83.00
39045;DHT22;52192;52.002;5.956;2023-03-08T05:03:15;3.30;83.00
39045;DHT22;52192;52.002;5.956;2023-03-08T05:05:53;3.30;83.00
39045;DHT22;52192;52.002;5.956;2023-03-08T05:08:18;3.40;82.90
39045;DHT22;52192;52.002;5.956;2023-03-08T05:10:54;3.40;83.00
39045;DHT22;52192;52.002;5.956;2023-03-08T05:13:28;3.50;83.10
39045;DHT22;52192;52.002;5.956;2023-03-08T05:15:54;3.40;83.10
39045;DHT22;52192;52.002;5.956;2023-03-08T05:18:20;3.40;83.10
39045;DHT22;52192;52.002;5.956;2023-03-08T05:20:53;3.50;83.20
39045;DHT22;52192;52.002;5.956;2023-03-08T05:23:20;3.50;83.10
39045;DHT22;52192;52.002;5.956;2023-03-08T05:25:46;3.50;83.10
39045;DHT22;52192;52.002;5.956;2023-03-08T05:28:12;3.50;83.10
39045;DHT22;52192;52.002;5.956;2023-03-08T05:30:40;3.50;83.00
39045;DHT22;52192;52.002;5.956;2023-03-08T05:33:06;3.50;83.10
39045;DHT22;52192;52.002;5.956;2023-03-08T05:35:32;3.50;83.10
39045;DHT22;52192;52.002;5.956;2023-03-08T05:37:57;3.50;83.10
39045;DHT22;52192;52.002;5.956;2023-03-08T05:40:23;3.50;83.00
39045;DHT22;52192;52.002;5.956;2023-03-08T05:42:49;3.50;83.00
39045;DHT22;52192;52.002;5.956;2023-03-08T05:45:14;3.50;83.00
39045;DHT22;52192;52.002;5.956;2023-03-08T05:47:40;3.50;83.00
39045;DHT22;52192;52.002;5.956;2023-03-08T05:50:06;3.50;82.90
39045;DHT22;52192;52.002;5.956;2023-03-08T05:52:32;3.50;83.00
39045;DHT22;52192;52.002;5.956;2023-03-08T05:54:58;3.50;83.00
39045;DHT22;52192;52.002;5.956;2023-03-08T05:57:23;3.40;82.90
39045;DHT22;52192;52.002;5.956;2023-03-08T05:59:49;3.40;83.00
39045;DHT22;52192;52.002;5.956;2023-03-08T06:02:15;3.40;83.00
39045;DHT22;52192;52.002;5.956;2023-03-08T06:04:40;3.40;83.10
39045;DHT22;52192;52.002;5.956;2023-03-08T06:07:06;3.40;83.10
39045;DHT22;52192;52.002;5.956;2023-03-08T06:09:32;3.40;83.70
39045;DHT22;52192;52.002;5.956;2023-03-08T06:11:58;3.40;83.10
39045;DHT22;52192;52.002;5.956;2023-03-08T06:14:24;3.40;83.10
39045;DHT22;52192;52.002;5.956;2023-03-08T06:16:49;3.40;83.10
39045;DHT22;52192;52.002;5.956;2023-03-08T06:19:15;3.40;83.20
39045;DHT22;52192;52.002;5.956;2023-03-08T06:21:41;3.30;83.10
39045;DHT22;52192;52.002;5.956;2023-03-08T06:24:06;3.40;83.80
39045;DHT22;52192;52.002;5.956;2023-03-08T06:26:32;3.40;83.20
39045;DHT22;52192;52.002;5.956;2023-03-08T06:28:58;3.40;83.20
39045;DHT22;52192;52.002;5.956;2023-03-08T06:31:23;3.40;83.20
39045;DHT22;52192;52.002;5.956;2023-03-08T06:33:49;3.40;83.30
39045;DHT22;52192;52.002;5.956;2023-03-08T06:36:17;3.40;83.30
39045;DHT22;52192;52.002;5.956;2023-03-08T06:38:43;3.40;83.40
39045;DHT22;52192;52.002;5.956;2023-03-08T06:41:10;3.40;83.30
39045;DHT22;52192;52.002;5.956;2023-03-08T06:43:37;3.40;83.30
39045;DHT22;52192;52.002;5.956;2023-03-08T06:46:04;3.40;83.20
39045;DHT22;52192;52.002;5.956;2023-03-08T06:48:29;3.30;83.30
39045;DHT22;52192;52.002;5.956;2023-03-08T06:50:55;3.30;83.40
39045;DHT22;52192;52.002;5.956;2023-03-08T06:53:21;3.30;83.40
39045;DHT22;52192;52.002;5.956;2023-03-08T06:55:46;3.30;83.50
39045;DHT22;52192;52.002;5.956;2023-03-08T06:58:12;3.30;83.40
39045;DHT22;52192;52.002;5.956;2023-03-08T07:00:38;3.30;83.40
39045;DHT22;52192;52.002;5.956;2023-03-08T07:03:04;3.40;83.40
39045;DHT22;52192;52.002;5.956;2023-03-08T07:05:30;3.40;83.50
39045;DHT22;52192;52.002;5.956;2023-03-08T07:07:56;3.40;83.40
39045;DHT22;52192;52.002;5.956;2023-03-08T07:10:22;3.40;83.50
39045;DHT22;52192;52.002;5.956;2023-03-08T07:12:48;3.40;83.50
39045;DHT22;52192;52.002;5.956;2023-03-08T07:15:18;3.40;83.50
39045;DHT22;52192;52.002;5.956;2023-03-08T07:17:45;3.40;83.60
39045;DHT22;52192;52.002;5.956;2023-03-08T07:20:12;3.40;83.50
39045;DHT22;52192;52.002;5.956;2023-03-08T07:22:40;3.40;83.60
39045;DHT22;52192;52.002;5.956;2023-03-08T07:25:07;3.50;84.10
39045;DHT22;52192;52.002;5.956;2023-03-08T07:27:33;3.50;83.50
39045;DHT22;52192;52.002;5.956;2023-03-08T07:29:59;3.50;83.50
39045;DHT22;52192;52.002;5.956;2023-03-08T07:32:24;3.60;83.60
39045;DHT22;52192;52.002;5.956;2023-03-08T07:34:56;3.60;83.50
39045;DHT22;52192;52.002;5.956;2023-03-08T07:37:23;3.60;83.60
39045;DHT22;52192;52.002;5.956;2023-03-08T07:39:48;3.60;83.50
39045;DHT22;52192;52.002;5.956;2023-03-08T07:42:15;3.60;83.60
39045;DHT22;52192;52.002;5.956;2023-03-08T07:44:41;3.60;83.60
39045;DHT22;52192;52.002;5.956;2023-03-08T07:47:07;3.70;83.70
39045;DHT22;52192;52.002;5.956;2023-03-08T07:49:33;3.70;83.70
39045;DHT22;52192;52.002;5.956;2023-03-08T07:51:59;3.70;83.60
39045;DHT22;52192;52.002;5.956;2023-03-08T07:54:25;3.70;83.60
39045;DHT22;52192;52.002;5.956;2023-03-08T07:56:52;3.80;83.60
39045;DHT22;52192;52.002;5.956;2023-03-08T07:59:18;3.80;83.60
39045;DHT22;52192;52.002;5.956;2023-03-08T08:01:44;3.80;83.50
39045;DHT22;52192;52.002;5.956;2023-03-08T08:04:10;3.80;83.50
39045;DHT22;52192;52.002;5.956;2023-03-08T08:06:37;3.80;83.50
39045;DHT22;52192;52.002;5.956;2023-03-08T08:09:04;3.90;83.50
39045;DHT22;52192;52.002;5.956;2023-03-08T08:11:29;3.90;83.50
39045;DHT22;52192;52.002;5.956;2023-03-08T08:13:55;3.90;83.50
39045;DHT22;52192;52.002;5.956;2023-03-08T08:16:21;3.90;83.40
39045;DHT22;52192;52.002;5.956;2023-03-08T08:18:47;3.90;83.40
39045;DHT22;52192;52.002;5.956;2023-03-08T08:21:14;4.00;83.40
39045;DHT22;52192;52.002;5.956;2023-03-08T08:23:41;4.00;83.40
39045;DHT22;52192;52.002;5.956;2023-03-08T08:26:09;4.10;83.40
39045;DHT22;52192;52.002;5.956;2023-03-08T08:28:36;4.10;83.30
39045;DHT22;52192;52.002;5.956;2023-03-08T08:31:12;4.10;83.20
39045;DHT22;52192;52.002;5.956;2023-03-08T08:33:38;4.20;83.30
39045;DHT22;52192;52.002;5.956;2023-03-08T08:36:06;4.20;83.30
39045;DHT22;52192;52.002;5.956;2023-03-08T08:38:32;4.20;83.20
39045;DHT22;52192;52.002;5.956;2023-03-08T08:41:02;4.20;83.20
39045;DHT22;52192;52.002;5.956;2023-03-08T08:43:28;4.30;83.10
39045;DHT22;52192;52.002;5.956;2023-03-08T08:45:56;4.40;83.00
39045;DHT22;52192;52.002;5.956;2023-03-08T08:48:23;4.40;82.90
39045;DHT22;52192;52.002;5.956;2023-03-08T08:50:49;4.40;82.90
39045;DHT22;52192;52.002;5.956;2023-03-08T08:53:16;4.40;82.90
39045;DHT22;52192;52.002;5.956;2023-03-08T08:55:42;4.50;83.00
39045;DHT22;52192;52.002;5.956;2023-03-08T08:58:08;4.50;82.90
39045;DHT22;52192;52.002;5.956;2023-03-08T09:00:35;4.50;82.90
39045;DHT22;52192;52.002;5.956;2023-03-08T09:03:02;4.60;82.80
39045;DHT22;52192;52.002;5.956;2023-03-08T09:05:28;4.60;82.70
39045;DHT22;52192;52.002;5.956;2023-03-08T09:07:55;4.60;82.70
39045;DHT22;52192;52.002;5.956;2023-03-08T09:10:26;4.60;82.70
39045;DHT22;52192;52.002;5.956;2023-03-08T09:12:52;4.70;82.80
39045;DHT22;52192;52.002;5.956;2023-03-08T09:15:18;4.70;82.70
39045;DHT22;52192;52.002;5.956;2023-03-08T09:17:46;4.80;82.50
39045;DHT22;52192;52.002;5.956;2023-03-08T09:20:12;4.80;82.40
39045;DHT22;52192;52.002;5.956;2023-03-08T09:22:38;4.80;82.30
39045;DHT22;52192;52.002;5.956;2023-03-08T09:25:09;4.80;82.40
39045;DHT22;52192;52.002;5.956;2023-03-08T09:27:36;4.90;82.40
39045;DHT22;52192;52.002;5.956;2023-03-08T09:30:03;4.90;82.40
39045;DHT22;52192;52.002;5.956;2023-03-08T09:32:31;4.90;82.30
39045;DHT22;52192;52.002;5.956;2023-03-08T09:34:57;4.90;82.20
39045;DHT22;52192;52.002;5.956;2023-03-08T09:37:23;5.00;82.20
39045;DHT22;52192;52.002;5.956;2023-03-08T09:39:50;5.00;82.00
39045;DHT22;52192;52.002;5.956;2023-03-08T09:42:20;5.00;81.90
39045;DHT22;52192;52.002;5.956;2023-03-08T09:50:56;4.90;81.80
39045;DHT22;52192;52.002;5.956;2023-03-08T09:53:47;4.90;81.90
39045;DHT22;52192;52.002;5.956;2023-03-08T09:56:30;4.90;82.00
39045;DHT22;52192;52.002;5.956;2023-03-08T09:59:10;5.00;82.00
39045;DHT22;52192;52.002;5.956;2023-03-08T10:05:16;5.20;81.90
39045;DHT22;52192;52.002;5.956;2023-03-08T10:15:50;5.40;81.40
39045;DHT22;52192;52.002;5.956;2023-03-08T10:21:05;5.40;81.30
39045;DHT22;52192;52.002;5.956;2023-03-08T10:23:31;5.50;81.40
39045;DHT22;52192;52.002;5.956;2023-03-08T10:25:59;5.50;81.30
39045;DHT22;52192;52.002;5.956;2023-03-08T10:28:25;5.50;81.20
39045;DHT22;52192;52.002;5.956;2023-03-08T10:30:54;5.50;81.30
39045;DHT22;52192;52.002;5.956;2023-03-08T10:33:23;5.60;81.30
39045;DHT22;52192;52.002;5.956;2023-03-08T10:38:17;5.70;81.10
39045;DHT22;52192;52.002;5.956;2023-03-08T10:40:43;5.80;81.20
39045;DHT22;52192;52.002;5.956;2023-03-08T10:46:14;6.00;80.90
39045;DHT22;52192;52.002;5.956;2023-03-08T10:48:40;6.10;80.60
39045;DHT22;52192;52.002;5.956;2023-03-08T10:51:16;6.10;80.50
39045;DHT22;52192;52.002;5.956;2023-03-08T10:53:52;6.10;80.60
39045;DHT22;52192;52.002;5.956;2023-03-08T10:56:42;6.10;80.50
39045;DHT22;52192;52.002;5.956;2023-03-08T10:59:35;6.10;80.50
39045;DHT22;52192;52.002;5.956;2023-03-08T11:04:29;6.00;80.70
39045;DHT22;52192;52.002;5.956;2023-03-08T11:06:55;6.10;80.60
39045;DHT22;52192;52.002;5.956;2023-03-08T11:09:31;6.10;80.50
39045;DHT22;52192;52.002;5.956;2023-03-08T11:12:01;6.20;80.50
39045;DHT22;52192;52.002;5.956;2023-03-08T11:14:28;6.20;80.40
39045;DHT22;52192;52.002;5.956;2023-03-08T11:19:29;6.30;80.20
39045;DHT22;52192;52.002;5.956;2023-03-08T11:28:06;6.60;79.50
39045;DHT22;52192;52.002;5.956;2023-03-08T11:30:56;6.50;79.20
39045;DHT22;52192;52.002;5.956;2023-03-08T11:36:11;6.50;79.00
39045;DHT22;52192;52.002;5.956;2023-03-08T11:38:39;6.50;78.80
39045;DHT22;52192;52.002;5.956;2023-03-08T11:52:42;6.40;77.90
39045;DHT22;52192;52.002;5.956;2023-03-08T11:55:30;6.30;78.00
39045;DHT22;52192;52.002;5.956;2023-03-08T11:58:06;6.30;78.00
39045;DHT22;52192;52.002;5.956;2023-03-08T12:00:36;6.30;77.90
39045;DHT22;52192;52.002;5.956;2023-03-08T12:03:34;6.30;77.80
39045;DHT22;52192;52.002;5.956;2023-03-08T12:06:09;6.40;77.80
39045;DHT22;52192;52.002;5.956;2023-03-08T12:08:43;6.30;77.80
39045;DHT22;52192;52.002;5.956;2023-03-08T12:11:21;6.30;77.90
39045;DHT22;52192;52.002;5.956;2023-03-08T12:14:19;6.40;77.70
39045;DHT22;52192;52.002;5.956;2023-03-08T12:17:06;6.40;77.60
39045;DHT22;52192;52.002;5.956;2023-03-08T12:19:38;6.40;77.70
39045;DHT22;52192;52.002;5.956;2023-03-08T12:25:26;6.40;77.30
39045;DHT22;52192;52.002;5.956;2023-03-08T12:28:14;6.40;77.10
39045;DHT22;52192;52.002;5.956;2023-03-08T12:33:29;6.40;77.20
39045;DHT22;52192;52.002;5.956;2023-03-08T12:36:05;6.30;77.10
39045;DHT22;52192;52.002;5.956;2023-03-08T12:38:36;6.30;76.90
39045;DHT22;52192;52.002;5.956;2023-03-08T12:41:04;6.30;76.90
39045;DHT22;52192;52.002;5.956;2023-03-08T12:43:34;6.20;76.70
39045;DHT22;52192;52.002;5.956;2023-03-08T12:50:57;6.30;76.70
39045;DHT22;52192;52.002;5.956;2023-03-08T12:54:15;6.40;76.60
39045;DHT22;52192;52.002;5.956;2023-03-08T12:56:49;6.40;76.40
39045;DHT22;52192;52.002;5.956;2023-03-08T13:01:43;6.50;76.50
39045;DHT22;52192;52.002;5.956;2023-03-08T13:04:28;6.40;76.40
39045;DHT22;52192;52.002;5.956;2023-03-08T13:07:08;6.50;76.30
39045;DHT22;52192;52.002;5.956;2023-03-08T13:12:22;6.40;77.00
39045;DHT22;52192;52.002;5.956;2023-03-08T13:17:39;6.40;76.40
39045;DHT22;52192;52.002;5.956;2023-03-08T13:20:17;6.40;76.40
39045;DHT22;52192;52.002;5.956;2023-03-08T13:28:22;6.40;76.00
39045;DHT22;52192;52.002;5.956;2023-03-08T13:30:54;6.40;75.90
39045;DHT22;52192;52.002;5.956;2023-03-08T13:38:57;6.20;75.40
39045;DHT22;52192;52.002;5.956;2023-03-08T13:41:40;6.20;75.30
39045;DHT22;52192;52.002;5.956;2023-03-08T13:44:27;6.10;75.40
39045;DHT22;52192;52.002;5.956;2023-03-08T13:46:55;6.10;75.40
39045;DHT22;52192;52.002;5.956;2023-03-08T13:49:25;6.10;75.50
39045;DHT22;52192;52.002;5.956;2023-03-08T13:51:54;6.10;75.40
39045;DHT22;52192;52.002;5.956;2023-03-08T13:54:40;6.20;75.30
39045;DHT22;52192;52.002;5.956;2023-03-08T13:57:24;6.20;75.20
39045;DHT22;52192;52.002;5.956;2023-03-08T13:59:56;6.30;75.10
39045;DHT22;52192;52.002;5.956;2023-03-08T14:02:24;6.30;74.90
39045;DHT22;52192;52.002;5.956;2023-03-08T14:04:50;6.30;74.60
39045;DHT22;52192;52.002;5.956;2023-03-08T14:07:25;6.20;74.50
39045;DHT22;52192;52.002;5.956;2023-03-08T14:09:51;6.20;74.50
39045;DHT22;52192;52.002;5.956;2023-03-08T14:12:19;6.20;74.60
39045;DHT22;52192;52.002;5.956;2023-03-08T14:14:51;6.20;74.60
39045;DHT22;52192;52.002;5.956;2023-03-08T14:17:26;6.20;74.20
39045;DHT22;52192;52.002;5.956;2023-03-08T14:19:57;6.20;74.30
39045;DHT22;52192;52.002;5.956;2023-03-08T14:22:26;6.20;74.30
39045;DHT22;52192;52.002;5.956;2023-03-08T14:24:56;6.20;74.30
39045;DHT22;52192;52.002;5.956;2023-03-08T14:27:37;6.20;74.20
39045;DHT22;52192;52.002;5.956;2023-03-08T14:30:25;6.30;74.30
39045;DHT22;52192;52.002;5.956;2023-03-08T14:35:40;6.30;74.00
39045;DHT22;52192;52.002;5.956;2023-03-08T14:38:25;6.30;73.80
39045;DHT22;52192;52.002;5.956;2023-03-08T14:40:52;6.40;73.80
39045;DHT22;52192;52.002;5.956;2023-03-08T14:43:23;6.30;74.00
39045;DHT22;52192;52.002;5.956;2023-03-08T14:46:13;6.30;74.10
39045;DHT22;52192;52.002;5.956;2023-03-08T14:48:41;6.40;74.20
39045;DHT22;52192;52.002;5.956;2023-03-08T14:53:42;6.40;74.50
39045;DHT22;52192;52.002;5.956;2023-03-08T14:56:15;6.30;74.40
39045;DHT22;52192;52.002;5.956;2023-03-08T14:58:43;6.30;74.60
39045;DHT22;52192;52.002;5.956;2023-03-08T15:01:11;6.30;74.70
39045;DHT22;52192;52.002;5.956;2023-03-08T15:03:37;6.30;74.80
39045;DHT22;52192;52.002;5.956;2023-03-08T15:06:18;6.30;74.70
39045;DHT22;52192;52.002;5.956;2023-03-08T15:08:44;6.30;74.60
39045;DHT22;52192;52.002;5.956;2023-03-08T15:11:10;6.20;74.90
39045;DHT22;52192;52.002;5.956;2023-03-08T15:13:36;6.20;75.00
39045;DHT22;52192;52.002;5.956;2023-03-08T15:16:02;6.10;75.10
39045;DHT22;52192;52.002;5.956;2023-03-08T15:18:27;6.10;75.20
39045;DHT22;52192;52.002;5.956;2023-03-08T15:20:53;6.10;75.20
39045;DHT22;52192;52.002;5.956;2023-03-08T15:23:25;6.10;75.30
39045;DHT22;52192;52.002;5.956;2023-03-08T15:25:51;6.10;75.40
39045;DHT22;52192;52.002;5.956;2023-03-08T15:28:19;6.00;75.60
39045;DHT22;52192;52.002;5.956;2023-03-08T15:30:45;6.00;75.70
39045;DHT22;52192;52.002;5.956;2023-03-08T15:33:11;6.00;75.80
39045;DHT22;52192;52.002;5.956;2023-03-08T15:35:37;6.00;75.90
39045;DHT22;52192;52.002;5.956;2023-03-08T15:38:03;5.90;76.00
39045;DHT22;52192;52.002;5.956;2023-03-08T15:40:30;5.90;76.00
39045;DHT22;52192;52.002;5.956;2023-03-08T15:42:56;5.90;76.10
39045;DHT22;52192;52.002;5.956;2023-03-08T15:45:23;5.90;76.30
39045;DHT22;52192;52.002;5.956;2023-03-08T15:48:13;5.90;76.40
39045;DHT22;52192;52.002;5.956;2023-03-08T15:50:40;5.80;76.40
39045;DHT22;52192;52.002;5.956;2023-03-08T15:53:06;5.80;76.70
39045;DHT22;52192;52.002;5.956;2023-03-08T15:55:31;5.80;76.70
39045;DHT22;52192;52.002;5.956;2023-03-08T15:57:57;5.80;76.80
39045;DHT22;52192;52.002;5.956;2023-03-08T16:00:24;5.70;76.80
39045;DHT22;52192;52.002;5.956;2023-03-08T16:02:50;5.70;77.00
39045;DHT22;52192;52.002;5.956;2023-03-08T16:05:18;5.60;77.20
39045;DHT22;52192;52.002;5.956;2023-03-08T16:08:08;5.60;77.30
39045;DHT22;52192;52.002;5.956;2023-03-08T16:10:34;5.50;77.40
39045;DHT22;52192;52.002;5.956;2023-03-08T16:13:05;5.50;77.60
39045;DHT22;52192;52.002;5.956;2023-03-08T16:15:31;5.40;77.70
39045;DHT22;52192;52.002;5.956;2023-03-08T16:17:57;5.40;77.80
39045;DHT22;52192;52.002;5.956;2023-03-08T16:20:23;5.40;77.80
39045;DHT22;52192;52.002;5.956;2023-03-08T16:22:50;5.50;78.00
39045;DHT22;52192;52.002;5.956;2023-03-08T16:25:16;5.40;77.90
39045;DHT22;52192;52.002;5.956;2023-03-08T16:27:42;5.40;77.90
39045;DHT22;52192;52.002;5.956;2023-03-08T16:30:10;5.40;77.90
39045;DHT22;52192;52.002;5.956;2023-03-08T16:32:35;5.50;78.10
39045;DHT22;52192;52.002;5.956;2023-03-08T16:35:01;5.50;78.00
39045;DHT22;52192;52.002;5.956;2023-03-08T16:37:27;5.40;78.10
39045;DHT22;52192;52.002;5.956;2023-03-08T16:39:53;5.40;78.10
39045;DHT22;52192;52.002;5.956;2023-03-08T16:42:26;5.40;78.20
39045;DHT22;52192;52.002;5.956;2023-03-08T16:44:54;5.40;78.30
39045;DHT22;52192;52.002;5.956;2023-03-08T16:47:21;5.40;78.30
39045;DHT22;52192;52.002;5.956;2023-03-08T16:49:47;5.40;78.40
39045;DHT22;52192;52.002;5.956;2023-03-08T16:52:16;5.40;78.50
39045;DHT22;52192;52.002;5.956;2023-03-08T16:54:42;5.40;78.50
39045;DHT22;52192;52.002;5.956;2023-03-08T16:57:12;5.40;78.70
39045;DHT22;52192;52.002;5.956;2023-03-08T16:59:39;5.40;78.70
39045;DHT22;52192;52.002;5.956;2023-03-08T17:02:08;5.30;78.80
39045;DHT22;52192;52.002;5.956;2023-03-08T17:04:33;5.40;79.00
39045;DHT22;52192;52.002;5.956;2023-03-08T17:06:59;5.30;79.00
39045;DHT22;52192;52.002;5.956;2023-03-08T17:09:25;5.40;79.00
39045;DHT22;52192;52.002;5.956;2023-03-08T17:11:50;5.40;79.00
39045;DHT22;52192;52.002;5.956;2023-03-08T17:14:16;5.40;79.00
39045;DHT22;52192;52.002;5.956;2023-03-08T17:16:42;5.30;79.00
39045;DHT22;52192;52.002;5.956;2023-03-08T17:19:09;5.30;79.00
39045;DHT22;52192;52.002;5.956;2023-03-08T17:21:36;5.30;79.10
39045;DHT22;52192;52.002;5.956;2023-03-08T17:24:05;5.30;79.20